createdAt,value
2022-11-16T00:02:12.989Z,84.88
2022-11-16T00:07:06.743Z,84.38
2022-11-16T00:09:34.068Z,81.97
2022-11-16T00:12:03.911Z,86.23
2022-11-16T00:14:32.985Z,82.97
2022-11-16T00:17:00.288Z,85.00
2022-11-16T00:19:27.639Z,83.47
2022-11-16T00:21:54.968Z,90.25
2022-11-16T00:24:23.491Z,91.33
2022-11-16T00:26:50.622Z,90.55
2022-11-16T00:29:20.233Z,87.35
2022-11-16T00:31:47.694Z,85.57
2022-11-16T00:34:15.161Z,89.80
2022-11-16T00:36:42.252Z,89.32
2022-11-16T00:39:11.968Z,85.70
2022-11-16T00:41:39.049Z,89.30
2022-11-16T00:44:06.419Z,87.60
2022-11-16T00:46:33.379Z,94.45
2022-11-16T00:49:01.501Z,93.82
2022-11-16T00:51:28.457Z,90.10
2022-11-16T00:53:55.264Z,91.53
2022-11-16T00:56:23.166Z,97.00
2022-11-16T00:58:50.205Z,95.90
2022-11-16T01:01:17.935Z,93.55
2022-11-16T01:03:44.915Z,86.38
2022-11-16T01:06:14.846Z,84.45
2022-11-16T01:08:42.939Z,78.25
2022-11-16T01:11:30.607Z,85.53
2022-11-16T01:13:58.825Z,85.82
2022-11-16T01:16:25.642Z,87.28
2022-11-16T01:18:54.172Z,74.70
2022-11-16T01:21:22.738Z,84.85
2022-11-16T01:23:49.803Z,83.07
2022-11-16T01:26:17.072Z,75.28
2022-11-16T01:28:44.431Z,79.53
2022-11-16T01:31:12.578Z,81.30
2022-11-16T01:33:40.545Z,87.43
2022-11-16T01:36:14.849Z,74.85
2022-11-16T01:38:45.501Z,102.45
2022-11-16T01:41:15.803Z,84.32
2022-11-16T01:44:14.385Z,80.82
2022-11-16T01:46:52.678Z,83.30
2022-11-16T01:49:24.025Z,81.45
2022-11-16T01:52:01.601Z,85.90
2022-11-16T01:54:34.269Z,86.70
2022-11-16T01:57:04.245Z,81.80
2022-11-16T01:59:36.502Z,84.20
2022-11-16T02:02:04.860Z,82.55
2022-11-16T02:04:32.847Z,84.45
2022-11-16T02:07:16.942Z,83.45
2022-11-16T02:09:59.061Z,76.28
2022-11-16T02:12:37.497Z,88.90
2022-11-16T02:15:33.126Z,85.32
2022-11-16T02:18:47.013Z,85.68
2022-11-16T02:21:31.341Z,89.20
2022-11-16T02:24:26.997Z,85.65
2022-11-16T02:27:07.817Z,87.05
2022-11-16T02:29:43.694Z,80.70
2022-11-16T02:32:20.929Z,93.95
2022-11-16T02:35:02.521Z,88.78
2022-11-16T02:37:34.663Z,79.13
2022-11-16T02:40:07.135Z,88.43
2022-11-16T02:42:46.229Z,85.38
2022-11-16T02:45:19.250Z,86.90
2022-11-16T02:47:48.105Z,81.90
2022-11-16T02:50:18.769Z,90.72
2022-11-16T02:52:45.752Z,82.55
2022-11-16T02:55:13.244Z,82.53
2022-11-16T02:57:53.389Z,87.13
2022-11-16T03:00:26.535Z,86.50
2022-11-16T03:03:08.019Z,87.07
2022-11-16T03:05:40.924Z,82.70
2022-11-16T03:08:19.030Z,93.07
2022-11-16T03:11:11.405Z,80.72
2022-11-16T03:13:41.205Z,79.85
2022-11-16T03:16:22.971Z,82.53
2022-11-16T03:18:52.193Z,89.75
2022-11-16T03:21:41.269Z,87.03
2022-11-16T03:24:09.009Z,88.32
2022-11-16T03:26:46.723Z,89.28
2022-11-16T03:29:39.757Z,89.07
2022-11-16T03:32:27.314Z,92.55
2022-11-16T03:35:04.471Z,88.40
2022-11-16T03:37:33.088Z,94.38
2022-11-16T03:40:02.687Z,90.80
2022-11-16T03:42:33.157Z,92.07
2022-11-16T03:45:00.993Z,90.90
2022-11-16T03:47:28.010Z,91.30
2022-11-16T03:49:55.072Z,89.53
2022-11-16T03:52:28.000Z,85.75
2022-11-16T03:54:54.990Z,92.00
2022-11-16T03:57:24.903Z,91.85
2022-11-16T03:59:55.382Z,90.22
2022-11-16T04:02:22.611Z,94.83
2022-11-16T04:05:09.713Z,99.25
2022-11-16T04:07:55.981Z,96.68
2022-11-16T04:10:42.360Z,93.18
2022-11-16T04:13:30.969Z,92.40
2022-11-16T04:16:18.898Z,91.38
2022-11-16T04:19:04.758Z,93.55
2022-11-16T04:21:58.153Z,95.70
2022-11-16T04:24:32.476Z,104.45
2022-11-16T04:27:21.839Z,97.18
2022-11-16T04:29:49.214Z,96.60
2022-11-16T04:32:35.241Z,101.07
2022-11-16T04:35:20.777Z,102.53
2022-11-16T04:37:52.251Z,101.65
2022-11-16T04:40:31.682Z,92.75
2022-11-16T04:43:03.228Z,92.57
2022-11-16T04:45:52.901Z,101.13
2022-11-16T04:48:24.014Z,94.60
2022-11-16T04:50:53.449Z,96.72
2022-11-16T04:53:22.442Z,99.65
2022-11-16T04:56:00.667Z,106.28
2022-11-16T04:58:29.534Z,99.15
2022-11-16T05:00:56.495Z,99.57
2022-11-16T05:03:23.420Z,101.03
2022-11-16T05:05:50.766Z,105.30
2022-11-16T05:08:20.349Z,110.50
2022-11-16T05:10:51.755Z,105.78
2022-11-16T05:13:19.373Z,110.78
2022-11-16T05:15:46.668Z,116.38
2022-11-16T05:18:14.131Z,107.05
2022-11-16T05:20:59.548Z,119.13
2022-11-16T05:23:46.588Z,114.50
2022-11-16T05:26:16.200Z,113.90
2022-11-16T05:28:43.354Z,110.60
2022-11-16T05:31:12.272Z,109.50
2022-11-16T05:33:39.322Z,111.68
2022-11-16T05:36:06.947Z,113.38
2022-11-16T05:41:01.761Z,119.20
2022-11-16T05:43:29.780Z,126.78
2022-11-16T05:46:28.610Z,117.95
2022-11-16T05:48:58.467Z,120.43
2022-11-16T05:51:26.047Z,126.68
2022-11-16T05:53:54.590Z,127.38
2022-11-16T05:56:23.280Z,135.23
2022-11-16T05:58:52.540Z,131.07
2022-11-16T06:01:20.239Z,131.15
2022-11-16T06:03:49.358Z,127.38
2022-11-16T06:06:16.241Z,135.43
2022-11-16T06:08:43.535Z,143.18
2022-11-16T06:11:14.647Z,136.98
2022-11-16T06:13:42.417Z,136.95
2022-11-16T06:16:09.927Z,143.98
2022-11-16T06:18:42.937Z,157.52
2022-11-16T06:21:11.234Z,143.32
2022-11-16T06:26:06.386Z,134.38
2022-11-16T06:31:00.949Z,136.57
2022-11-16T06:33:33.627Z,146.45
2022-11-16T06:36:04.066Z,137.35
2022-11-16T06:38:32.147Z,138.38
2022-11-16T06:41:00.090Z,143.15
2022-11-16T06:43:29.298Z,145.32
2022-11-16T06:45:58.389Z,147.35
2022-11-16T06:48:25.471Z,154.48
2022-11-16T06:50:52.787Z,144.50
2022-11-16T06:53:27.564Z,151.60
2022-11-16T06:56:04.714Z,139.63
2022-11-16T06:58:35.798Z,133.82
2022-11-16T07:01:11.750Z,139.65
2022-11-16T07:03:41.112Z,145.50
2022-11-16T07:06:11.836Z,142.25
2022-11-16T07:08:40.824Z,142.63
2022-11-16T07:13:38.005Z,131.55
2022-11-16T07:16:11.320Z,132.18
2022-11-16T07:18:43.147Z,138.82
2022-11-16T07:21:13.035Z,143.63
2022-11-16T07:23:40.226Z,132.13
2022-11-16T07:26:10.978Z,137.52
2022-11-16T07:28:48.544Z,135.57
2022-11-16T07:31:18.996Z,139.13
2022-11-16T07:33:46.528Z,124.85
2022-11-16T07:36:48.608Z,140.38
2022-11-16T07:39:17.106Z,135.77
2022-11-16T07:41:45.219Z,127.03
2022-11-16T07:44:24.967Z,127.80
2022-11-16T07:47:05.361Z,133.07
2022-11-16T07:49:36.464Z,128.63
2022-11-16T07:52:13.487Z,127.72
2022-11-16T07:55:05.635Z,133.10
2022-11-16T07:57:36.588Z,131.68
2022-11-16T08:00:11.129Z,127.65
2022-11-16T08:02:51.090Z,135.27
2022-11-16T08:05:20.137Z,139.82
2022-11-16T08:07:49.234Z,132.50
2022-11-16T08:10:16.981Z,134.02
2022-11-16T08:12:43.980Z,134.77
2022-11-16T08:15:11.658Z,136.13
2022-11-16T08:17:38.519Z,140.43
2022-11-16T08:20:08.312Z,144.07
2022-11-16T08:22:37.464Z,143.18
2022-11-16T08:25:05.019Z,136.43
2022-11-16T08:27:33.803Z,135.93
2022-11-16T08:30:03.187Z,139.00
2022-11-16T08:32:33.749Z,160.23
2022-11-16T08:35:00.668Z,149.10
2022-11-16T08:37:34.763Z,140.75
2022-11-16T08:40:03.508Z,151.98
2022-11-16T08:42:32.849Z,156.07
2022-11-16T08:44:59.905Z,168.52
2022-11-16T08:47:26.785Z,151.10
2022-11-16T08:49:56.302Z,155.02
2022-11-16T08:52:25.550Z,166.98
2022-11-16T08:54:54.033Z,160.60
2022-11-16T08:57:21.357Z,163.33
2022-11-16T08:59:58.845Z,177.88
2022-11-16T09:02:26.111Z,170.32
2022-11-16T09:04:53.503Z,187.18
2022-11-16T09:07:21.201Z,182.15
2022-11-16T09:09:48.593Z,173.52
2022-11-16T09:12:15.687Z,172.93
2022-11-16T09:14:42.481Z,180.27
2022-11-16T09:17:09.427Z,173.85
2022-11-16T09:19:36.205Z,175.23
2022-11-16T09:22:03.201Z,177.25
2022-11-16T09:24:29.996Z,186.77
2022-11-16T09:26:58.519Z,190.13
2022-11-16T09:29:27.494Z,182.48
2022-11-16T09:31:55.102Z,177.63
2022-11-16T09:34:22.001Z,167.57
2022-11-16T09:36:48.808Z,173.82
2022-11-16T09:39:32.043Z,167.63
2022-11-16T09:42:31.047Z,165.45
2022-11-16T09:45:12.357Z,162.77
2022-11-16T09:47:57.595Z,180.23
2022-11-16T09:50:53.192Z,175.05
2022-11-16T09:53:47.136Z,168.48
2022-11-16T09:56:22.878Z,164.20
2022-11-16T09:59:12.223Z,156.27
2022-11-16T10:02:15.035Z,155.65
2022-11-16T10:04:58.200Z,154.68
2022-11-16T10:07:44.534Z,141.48
2022-11-16T10:10:18.085Z,148.57
2022-11-16T10:13:05.615Z,146.88
2022-11-16T10:15:49.843Z,155.38
2022-11-16T10:18:39.652Z,135.32
2022-11-16T10:21:27.414Z,144.15
2022-11-16T10:24:00.373Z,139.57
2022-11-16T10:26:37.501Z,130.90
2022-11-16T10:29:25.900Z,127.97
2022-11-16T10:32:28.702Z,138.05
2022-11-16T10:35:05.975Z,147.18
2022-11-16T10:37:38.003Z,123.83
2022-11-16T10:40:36.942Z,120.50
2022-11-16T10:43:18.738Z,115.45
2022-11-16T10:45:51.713Z,106.28
2022-11-16T10:48:42.458Z,110.32
2022-11-16T10:51:10.610Z,101.60
2022-11-16T10:53:43.692Z,104.80
2022-11-16T10:56:20.348Z,96.65
2022-11-16T10:58:56.123Z,96.95
2022-11-16T11:01:50.692Z,88.38
2022-11-16T11:04:31.495Z,88.85
2022-11-16T11:07:21.335Z,75.63
2022-11-16T11:09:55.046Z,79.88
2022-11-16T11:12:38.656Z,79.45
2022-11-16T11:15:11.534Z,71.25
2022-11-16T11:17:43.573Z,66.28
2022-11-16T11:20:16.890Z,65.78
2022-11-16T11:22:56.758Z,56.83
2022-11-16T11:25:29.619Z,60.22
2022-11-16T11:28:18.161Z,58.72
2022-11-16T11:30:59.099Z,59.75
2022-11-16T11:33:53.785Z,53.33
2022-11-16T11:36:31.809Z,54.13
2022-11-16T11:39:28.254Z,53.38
2022-11-16T11:42:07.611Z,52.17
2022-11-16T11:44:49.623Z,53.35
2022-11-16T11:50:16.641Z,49.95
2022-11-16T11:53:05.697Z,47.67
2022-11-16T11:55:32.487Z,47.28
2022-11-16T11:58:01.938Z,49.10
2022-11-16T12:00:43.104Z,45.90
2022-11-16T12:03:47.323Z,48.95
2022-11-16T12:06:27.867Z,51.30
2022-11-16T12:09:24.119Z,48.17
2022-11-16T12:12:10.472Z,43.58
2022-11-16T12:15:05.603Z,51.25
2022-11-16T12:18:04.273Z,50.90
2022-11-16T12:20:37.845Z,49.60
2022-11-16T12:23:17.912Z,51.08
2022-11-16T12:26:11.579Z,52.63
2022-11-16T12:28:58.756Z,50.08
2022-11-16T12:31:31.944Z,47.80
2022-11-16T12:34:26.965Z,47.67
2022-11-16T12:37:14.588Z,49.95
2022-11-16T12:40:04.749Z,47.92
2022-11-16T12:42:50.025Z,47.67
2022-11-16T12:45:32.428Z,46.80
2022-11-16T12:48:03.632Z,51.42
2022-11-16T12:50:52.080Z,48.10
2022-11-16T12:53:26.739Z,43.97
2022-11-16T12:56:15.229Z,46.42
2022-11-16T12:59:13.704Z,56.70
2022-11-16T13:02:00.982Z,52.58
2022-11-16T13:04:51.426Z,47.03
2022-11-16T13:07:41.117Z,40.35
2022-11-16T13:10:24.542Z,43.47
2022-11-16T13:13:22.043Z,41.00
2022-11-16T13:15:46.295Z,40.38
2022-11-16T13:18:17.144Z,39.40
2022-11-16T13:21:01.695Z,36.85
2022-11-16T13:23:57.843Z,38.08
2022-11-16T13:26:35.746Z,37.60
2022-11-16T13:29:30.595Z,37.05
2022-11-16T13:32:24.965Z,37.47
2022-11-16T13:34:52.575Z,39.15
2022-11-16T13:37:37.695Z,38.55
2022-11-16T13:40:04.586Z,37.45
2022-11-16T13:42:38.961Z,35.45
2022-11-16T13:45:17.670Z,39.00
2022-11-16T13:47:56.748Z,37.00
2022-11-16T13:50:37.259Z,38.13
2022-11-16T13:56:00.510Z,40.80
2022-11-16T13:58:29.801Z,37.35
2022-11-16T14:00:59.406Z,38.83
2022-11-16T14:03:29.420Z,36.75
2022-11-16T14:05:56.293Z,36.95
2022-11-16T14:08:23.012Z,38.13
2022-11-16T14:10:52.533Z,39.05
2022-11-16T14:13:39.915Z,38.33
2022-11-16T14:16:27.607Z,41.17
2022-11-16T14:19:00.530Z,41.20
2022-11-16T14:21:46.010Z,41.90
2022-11-16T14:24:48.105Z,41.88
2022-11-16T14:27:17.882Z,48.78
2022-11-16T14:29:47.692Z,43.30
2022-11-16T14:32:22.498Z,44.40
2022-11-16T14:34:51.869Z,49.35
2022-11-16T14:37:24.614Z,48.15
2022-11-16T14:39:57.792Z,46.33
2022-11-16T14:42:38.135Z,48.28
2022-11-16T14:45:33.298Z,48.75
2022-11-16T14:48:22.048Z,48.70
2022-11-16T14:51:06.963Z,48.55
2022-11-16T14:53:37.875Z,51.40
2022-11-16T14:56:13.876Z,56.33
2022-11-16T14:59:00.541Z,48.47
2022-11-16T15:01:39.547Z,50.33
2022-11-16T15:04:12.163Z,51.42
2022-11-16T15:06:47.386Z,46.90
2022-11-16T15:09:30.953Z,45.15
2022-11-16T15:12:18.195Z,49.60
2022-11-16T15:14:56.067Z,46.55
2022-11-16T15:17:31.880Z,46.10
2022-11-16T15:20:03.626Z,44.95
2022-11-16T15:22:32.687Z,39.78
2022-11-16T15:25:01.353Z,41.72
2022-11-16T15:27:38.873Z,38.00
2022-11-16T15:30:27.018Z,38.13
2022-11-16T15:32:54.916Z,40.90
2022-11-16T15:35:30.738Z,38.67
2022-11-16T15:38:19.945Z,36.47
2022-11-16T15:40:53.293Z,33.53
2022-11-16T15:43:31.157Z,35.47
2022-11-16T15:46:00.045Z,32.38
2022-11-16T15:48:28.197Z,34.22
2022-11-16T15:53:39.065Z,31.85
2022-11-16T15:56:26.095Z,29.15
2022-11-16T15:58:54.822Z,30.37
2022-11-16T16:01:22.937Z,30.27
2022-11-16T16:06:48.372Z,29.88
2022-11-16T16:09:34.194Z,27.30
2022-11-16T16:12:26.310Z,27.48
2022-11-16T16:15:13.294Z,31.17
2022-11-16T16:17:45.980Z,32.33
2022-11-16T16:20:19.901Z,25.70
2022-11-16T16:22:46.965Z,30.60
2022-11-16T16:25:38.399Z,29.10
2022-11-16T16:28:13.670Z,27.85
2022-11-16T16:30:40.744Z,30.27
2022-11-16T16:33:16.976Z,30.70
2022-11-16T16:35:45.519Z,31.92
2022-11-16T16:38:13.934Z,32.88
2022-11-16T16:40:40.697Z,34.90
2022-11-16T16:43:07.561Z,30.83
2022-11-16T16:45:41.294Z,33.80
2022-11-16T16:48:14.262Z,37.28
2022-11-16T16:50:41.124Z,39.00
2022-11-16T16:53:14.564Z,41.03
2022-11-16T16:55:42.580Z,39.53
2022-11-16T16:58:13.513Z,38.35
2022-11-16T17:00:41.076Z,37.20
2022-11-16T17:03:08.295Z,33.90
2022-11-16T17:05:35.243Z,35.63
2022-11-16T17:08:02.443Z,36.75
2022-11-16T17:10:29.377Z,36.13
2022-11-16T17:12:57.222Z,34.03
2022-11-16T17:15:24.452Z,34.10
2022-11-16T17:17:51.517Z,35.63
2022-11-16T17:20:18.341Z,32.10
2022-11-16T17:22:45.986Z,33.97
2022-11-16T17:25:13.186Z,30.48
2022-11-16T17:27:40.062Z,32.28
2022-11-16T17:30:07.658Z,33.55
2022-11-16T17:32:34.587Z,31.52
2022-11-16T17:35:01.370Z,33.63
2022-11-16T17:37:28.152Z,33.95
2022-11-16T17:39:55.163Z,32.28
2022-11-16T17:42:21.992Z,30.85
2022-11-16T17:44:49.638Z,32.22
2022-11-16T17:47:16.439Z,34.53
2022-11-16T17:49:43.260Z,35.05
2022-11-16T17:52:11.054Z,31.63
2022-11-16T17:54:38.195Z,34.28
2022-11-16T17:57:05.201Z,37.75
2022-11-16T17:59:32.849Z,37.00
2022-11-16T18:01:59.592Z,37.53
2022-11-16T18:04:26.429Z,35.83
2022-11-16T18:06:53.346Z,37.38
2022-11-16T18:09:20.491Z,34.03
2022-11-16T18:11:47.766Z,38.50
2022-11-16T18:14:23.793Z,35.47
2022-11-16T18:16:50.616Z,35.30
2022-11-16T18:19:19.259Z,32.85
2022-11-16T18:21:47.771Z,32.75
2022-11-16T18:24:14.588Z,32.20
2022-11-16T18:26:41.817Z,33.50
2022-11-16T18:29:12.262Z,32.28
2022-11-16T18:31:39.192Z,31.00
2022-11-16T18:34:06.321Z,30.23
2022-11-16T18:36:33.218Z,31.63
2022-11-16T18:39:00.288Z,28.75
2022-11-16T18:41:29.611Z,29.88
2022-11-16T18:44:00.962Z,29.80
2022-11-16T18:46:30.231Z,31.45
2022-11-16T18:48:57.754Z,31.05
2022-11-16T18:51:26.968Z,30.55
2022-11-16T18:53:54.466Z,31.50
2022-11-16T18:56:22.320Z,28.58
2022-11-16T18:58:51.012Z,31.83
2022-11-16T19:01:20.677Z,31.33
2022-11-16T19:03:47.988Z,30.60
2022-11-16T19:06:16.964Z,33.13
2022-11-16T19:08:46.874Z,32.03
2022-11-16T19:11:17.170Z,32.45
2022-11-16T19:13:44.874Z,32.17
2022-11-16T19:16:13.336Z,31.45
2022-11-16T19:18:40.355Z,30.45
2022-11-16T19:21:09.473Z,31.83
2022-11-16T19:23:44.529Z,27.77
2022-11-16T19:26:13.309Z,28.38
2022-11-16T19:28:44.575Z,28.63
2022-11-16T19:31:15.616Z,26.77
2022-11-16T19:33:43.120Z,23.75
2022-11-16T19:36:15.253Z,29.05
2022-11-16T19:38:44.305Z,26.23
2022-11-16T19:41:12.956Z,26.40
2022-11-16T19:43:40.291Z,24.25
2022-11-16T19:46:11.570Z,23.30
2022-11-16T19:48:39.012Z,24.50
2022-11-16T19:51:07.236Z,27.77
2022-11-16T19:53:34.965Z,22.98
2022-11-16T19:56:02.598Z,22.88
2022-11-16T19:58:30.913Z,23.50
2022-11-16T20:03:32.444Z,22.90
2022-11-16T20:06:14.825Z,23.52
2022-11-16T20:08:46.203Z,24.60
2022-11-16T20:11:18.394Z,22.77
2022-11-16T20:13:46.054Z,20.92
2022-11-16T20:16:17.067Z,22.20
2022-11-16T20:18:45.173Z,22.10
2022-11-16T20:21:24.072Z,22.08
2022-11-16T20:23:51.783Z,19.65
2022-11-16T20:26:20.227Z,20.60
2022-11-16T20:28:50.965Z,19.63
2022-11-16T20:31:20.176Z,20.35
2022-11-16T20:33:58.067Z,18.17
2022-11-16T20:36:27.756Z,20.23
2022-11-16T20:38:55.736Z,21.30
2022-11-16T20:41:27.986Z,23.20
2022-11-16T20:43:56.669Z,19.45
2022-11-16T20:46:26.839Z,19.88
2022-11-16T20:48:54.569Z,18.23
2022-11-16T20:51:21.499Z,19.25
2022-11-16T20:53:49.655Z,16.38
2022-11-16T21:01:28.720Z,17.47
2022-11-16T21:03:56.978Z,16.63
2022-11-16T21:06:24.178Z,16.00
2022-11-16T21:08:51.046Z,16.48
2022-11-16T21:14:18.546Z,16.85
2022-11-16T21:16:45.475Z,15.57
2022-11-16T21:19:12.619Z,14.95
2022-11-16T21:21:40.863Z,14.20
2022-11-16T21:24:11.092Z,13.35
2022-11-16T21:26:38.344Z,15.43
2022-11-16T21:29:05.446Z,15.97
2022-11-16T21:31:34.783Z,17.13
2022-11-16T21:34:02.208Z,12.32
2022-11-16T21:36:30.982Z,13.43
2022-11-16T21:38:58.459Z,13.57
2022-11-16T21:41:26.214Z,13.63
2022-11-16T21:43:53.152Z,14.32
2022-11-16T21:46:22.506Z,13.95
2022-11-16T21:48:50.976Z,13.38
2022-11-16T21:51:19.584Z,14.20
2022-11-16T21:53:47.088Z,15.25
2022-11-16T21:56:16.448Z,12.88
2022-11-16T21:58:43.566Z,14.90
2022-11-16T22:01:12.005Z,13.75
2022-11-16T22:03:39.415Z,13.38
2022-11-16T22:06:26.125Z,20.35
2022-11-16T22:08:53.098Z,21.20
2022-11-16T22:11:22.102Z,16.45
2022-11-16T22:13:50.129Z,14.52
2022-11-16T22:16:18.384Z,15.30
2022-11-16T22:18:45.474Z,14.77
2022-11-16T22:21:12.304Z,14.68
2022-11-16T22:23:39.456Z,16.27
2022-11-16T22:26:11.899Z,12.43
2022-11-16T22:28:39.261Z,14.32
2022-11-16T22:31:11.445Z,15.07
2022-11-16T22:33:39.467Z,14.98
2022-11-16T22:38:35.860Z,12.55
2022-11-16T22:41:02.658Z,14.02
2022-11-16T22:43:30.551Z,13.07
2022-11-16T22:46:02.481Z,12.43
2022-11-16T22:48:34.176Z,15.02
2022-11-16T22:51:06.801Z,10.23
2022-11-16T22:53:34.250Z,11.10
2022-11-16T22:56:05.995Z,9.80
2022-11-16T22:58:32.844Z,9.02
2022-11-16T23:00:59.670Z,11.05
2022-11-16T23:03:26.525Z,11.23
2022-11-16T23:05:53.351Z,14.23
2022-11-16T23:08:24.683Z,12.30
2022-11-16T23:11:26.748Z,9.25
2022-11-16T23:14:13.445Z,10.20
2022-11-16T23:16:41.236Z,10.65
2022-11-16T23:19:28.405Z,11.02
2022-11-16T23:22:14.604Z,12.23
2022-11-16T23:25:00.593Z,10.10
2022-11-16T23:27:41.727Z,10.82
2022-11-16T23:30:12.813Z,12.65
2022-11-16T23:32:40.830Z,14.88
2022-11-16T23:35:08.194Z,10.27
2022-11-16T23:37:35.231Z,11.93
2022-11-16T23:40:02.051Z,10.63
2022-11-16T23:42:47.846Z,10.80
2022-11-16T23:45:15.310Z,10.63
2022-11-16T23:47:42.149Z,7.93
2022-11-16T23:50:12.141Z,9.80
2022-11-16T23:52:38.932Z,12.48
2022-11-16T23:55:06.217Z,11.23
2022-11-16T23:57:32.959Z,11.77
2022-11-16T23:59:59.735Z,12.30
